sensor_id;sensor_type;location;lat;lon;timestamp;P1;durP1;ratioP1;P2;durP2;ratioP2
15667;SDS011;7934;48.710;9.024;2023-07-20T00:00:08;3.67;;;2.40;;
15667;SDS011;7934;48.710;9.024;2023-07-20T00:02:37;4.30;;;3.07;;
15667;SDS011;7934;48.710;9.024;2023-07-20T00:05:06;5.97;;;2.83;;
15667;SDS011;7934;48.710;9.024;2023-07-20T00:07:33;4.47;;;2.80;;
15667;SDS011;7934;48.710;9.024;2023-07-20T00:10:00;3.80;;;2.80;;
15667;SDS011;7934;48.710;9.024;2023-07-20T00:12:27;4.30;;;2.93;;
15667;SDS011;7934;48.710;9.024;2023-07-20T00:14:54;4.17;;;2.67;;
15667;SDS011;7934;48.710;9.024;2023-07-20T00:17:21;2.83;;;2.40;;
15667;SDS011;7934;48.710;9.024;2023-07-20T00:19:49;3.00;;;2.80;;
15667;SDS011;7934;48.710;9.024;2023-07-20T00:22:17;2.80;;;2.40;;
15667;SDS011;7934;48.710;9.024;2023-07-20T00:24:44;2.93;;;2.67;;
15667;SDS011;7934;48.710;9.024;2023-07-20T00:27:11;5.53;;;2.80;;
15667;SDS011;7934;48.710;9.024;2023-07-20T00:29:38;2.50;;;2.30;;
15667;SDS011;7934;48.710;9.024;2023-07-20T00:32:06;5.07;;;2.80;;
15667;SDS011;7934;48.710;9.024;2023-07-20T00:34:33;4.53;;;2.40;;
15667;SDS011;7934;48.710;9.024;2023-07-20T00:37:01;3.13;;;2.70;;
15667;SDS011;7934;48.710;9.024;2023-07-20T00:39:29;5.57;;;2.60;;
15667;SDS011;7934;48.710;9.024;2023-07-20T00:41:56;3.37;;;2.37;;
15667;SDS011;7934;48.710;9.024;2023-07-20T00:44:23;3.83;;;2.30;;
15667;SDS011;7934;48.710;9.024;2023-07-20T00:46:50;2.77;;;2.60;;
15667;SDS011;7934;48.710;9.024;2023-07-20T00:49:18;4.47;;;2.47;;
15667;SDS011;7934;48.710;9.024;2023-07-20T00:51:47;6.73;;;2.93;;
15667;SDS011;7934;48.710;9.024;2023-07-20T00:54:14;3.10;;;2.80;;
15667;SDS011;7934;48.710;9.024;2023-07-20T00:56:43;2.43;;;2.23;;
15667;SDS011;7934;48.710;9.024;2023-07-20T00:59:11;6.47;;;2.60;;
15667;SDS011;7934;48.710;9.024;2023-07-20T01:01:38;6.37;;;2.37;;
15667;SDS011;7934;48.710;9.024;2023-07-20T01:04:05;4.53;;;2.73;;
15667;SDS011;7934;48.710;9.024;2023-07-20T01:06:35;3.37;;;3.07;;
15667;SDS011;7934;48.710;9.024;2023-07-20T01:09:07;3.50;;;2.47;;
15667;SDS011;7934;48.710;9.024;2023-07-20T01:11:36;3.13;;;2.70;;
15667;SDS011;7934;48.710;9.024;2023-07-20T01:14:05;4.67;;;3.20;;
15667;SDS011;7934;48.710;9.024;2023-07-20T01:16:32;2.97;;;2.33;;
15667;SDS011;7934;48.710;9.024;2023-07-20T01:19:00;4.77;;;2.63;;
15667;SDS011;7934;48.710;9.024;2023-07-20T01:21:28;6.20;;;2.50;;
15667;SDS011;7934;48.710;9.024;2023-07-20T01:24:05;3.40;;;2.40;;
15667;SDS011;7934;48.710;9.024;2023-07-20T01:26:47;4.27;;;2.60;;
15667;SDS011;7934;48.710;9.024;2023-07-20T01:29:27;3.73;;;2.43;;
15667;SDS011;7934;48.710;9.024;2023-07-20T01:32:03;2.80;;;2.40;;
15667;SDS011;7934;48.710;9.024;2023-07-20T01:34:32;2.63;;;2.43;;
15667;SDS011;7934;48.710;9.024;2023-07-20T01:37:01;4.03;;;2.50;;
15667;SDS011;7934;48.710;9.024;2023-07-20T01:39:29;3.30;;;2.27;;
15667;SDS011;7934;48.710;9.024;2023-07-20T01:41:57;4.57;;;2.80;;
15667;SDS011;7934;48.710;9.024;2023-07-20T01:44:24;2.83;;;2.60;;
15667;SDS011;7934;48.710;9.024;2023-07-20T01:46:51;2.40;;;2.30;;
15667;SDS011;7934;48.710;9.024;2023-07-20T01:49:20;5.53;;;2.83;;
15667;SDS011;7934;48.710;9.024;2023-07-20T01:51:47;3.43;;;2.73;;
15667;SDS011;7934;48.710;9.024;2023-07-20T01:54:14;3.13;;;2.83;;
15667;SDS011;7934;48.710;9.024;2023-07-20T01:56:41;2.70;;;2.50;;
15667;SDS011;7934;48.710;9.024;2023-07-20T01:59:08;3.37;;;2.50;;
15667;SDS011;7934;48.710;9.024;2023-07-20T02:01:36;2.70;;;2.50;;
15667;SDS011;7934;48.710;9.024;2023-07-20T02:04:03;2.70;;;2.50;;
15667;SDS011;7934;48.710;9.024;2023-07-20T02:06:31;2.80;;;2.30;;
15667;SDS011;7934;48.710;9.024;2023-07-20T02:08:58;2.63;;;2.43;;
15667;SDS011;7934;48.710;9.024;2023-07-20T02:11:25;6.00;;;2.80;;
15667;SDS011;7934;48.710;9.024;2023-07-20T02:13:52;4.67;;;2.50;;
15667;SDS011;7934;48.710;9.024;2023-07-20T02:16:19;2.50;;;2.30;;
15667;SDS011;7934;48.710;9.024;2023-07-20T02:18:47;2.10;;;2.00;;
15667;SDS011;7934;48.710;9.024;2023-07-20T02:21:14;3.50;;;2.53;;
15667;SDS011;7934;48.710;9.024;2023-07-20T02:23:42;4.23;;;2.50;;
15667;SDS011;7934;48.710;9.024;2023-07-20T02:26:09;2.40;;;2.20;;
15667;SDS011;7934;48.710;9.024;2023-07-20T02:28:36;2.87;;;2.47;;
15667;SDS011;7934;48.710;9.024;2023-07-20T02:31:03;2.50;;;2.20;;
15667;SDS011;7934;48.710;9.024;2023-07-20T02:33:30;4.23;;;2.50;;
15667;SDS011;7934;48.710;9.024;2023-07-20T02:35:58;3.73;;;2.47;;
15667;SDS011;7934;48.710;9.024;2023-07-20T02:38:25;4.23;;;2.70;;
15667;SDS011;7934;48.710;9.024;2023-07-20T02:40:53;2.60;;;2.50;;
15667;SDS011;7934;48.710;9.024;2023-07-20T02:43:20;4.93;;;2.60;;
15667;SDS011;7934;48.710;9.024;2023-07-20T02:45:47;2.90;;;2.70;;
15667;SDS011;7934;48.710;9.024;2023-07-20T02:48:15;2.47;;;2.37;;
15667;SDS011;7934;48.710;9.024;2023-07-20T02:50:43;2.70;;;2.50;;
15667;SDS011;7934;48.710;9.024;2023-07-20T02:53:10;2.63;;;2.43;;
15667;SDS011;7934;48.710;9.024;2023-07-20T02:55:37;2.70;;;2.60;;
15667;SDS011;7934;48.710;9.024;2023-07-20T02:58:06;3.87;;;2.60;;
15667;SDS011;7934;48.710;9.024;2023-07-20T03:00:33;3.40;;;2.83;;
15667;SDS011;7934;48.710;9.024;2023-07-20T03:03:00;5.03;;;2.50;;
15667;SDS011;7934;48.710;9.024;2023-07-20T03:05:27;4.17;;;2.40;;
15667;SDS011;7934;48.710;9.024;2023-07-20T03:07:55;4.00;;;2.63;;
15667;SDS011;7934;48.710;9.024;2023-07-20T03:10:22;6.33;;;2.60;;
15667;SDS011;7934;48.710;9.024;2023-07-20T03:12:49;4.90;;;2.97;;
15667;SDS011;7934;48.710;9.024;2023-07-20T03:15:18;3.20;;;2.90;;
15667;SDS011;7934;48.710;9.024;2023-07-20T03:17:45;3.67;;;2.70;;
15667;SDS011;7934;48.710;9.024;2023-07-20T03:20:12;2.83;;;2.63;;
15667;SDS011;7934;48.710;9.024;2023-07-20T03:22:39;3.90;;;2.87;;
15667;SDS011;7934;48.710;9.024;2023-07-20T03:25:06;6.37;;;3.20;;
15667;SDS011;7934;48.710;9.024;2023-07-20T03:27:33;4.00;;;2.83;;
15667;SDS011;7934;48.710;9.024;2023-07-20T03:30:01;4.53;;;2.90;;
15667;SDS011;7934;48.710;9.024;2023-07-20T03:32:29;3.27;;;2.73;;
15667;SDS011;7934;48.710;9.024;2023-07-20T03:34:56;3.00;;;2.73;;
15667;SDS011;7934;48.710;9.024;2023-07-20T03:37:23;3.40;;;2.80;;
15667;SDS011;7934;48.710;9.024;2023-07-20T03:39:50;2.77;;;2.57;;
15667;SDS011;7934;48.710;9.024;2023-07-20T03:42:17;4.00;;;2.50;;
15667;SDS011;7934;48.710;9.024;2023-07-20T03:44:45;3.33;;;2.63;;
15667;SDS011;7934;48.710;9.024;2023-07-20T03:47:12;3.63;;;2.73;;
15667;SDS011;7934;48.710;9.024;2023-07-20T03:49:41;3.93;;;2.67;;
15667;SDS011;7934;48.710;9.024;2023-07-20T03:52:08;3.13;;;2.90;;
15667;SDS011;7934;48.710;9.024;2023-07-20T03:54:35;3.23;;;2.67;;
15667;SDS011;7934;48.710;9.024;2023-07-20T03:57:03;2.87;;;2.70;;
15667;SDS011;7934;48.710;9.024;2023-07-20T03:59:30;2.97;;;2.77;;
15667;SDS011;7934;48.710;9.024;2023-07-20T04:01:58;5.47;;;3.17;;
15667;SDS011;7934;48.710;9.024;2023-07-20T04:04:25;4.03;;;2.90;;
15667;SDS011;7934;48.710;9.024;2023-07-20T04:06:54;3.13;;;2.90;;
15667;SDS011;7934;48.710;9.024;2023-07-20T04:09:21;3.30;;;3.00;;
15667;SDS011;7934;48.710;9.024;2023-07-20T04:11:48;4.57;;;2.87;;
15667;SDS011;7934;48.710;9.024;2023-07-20T04:14:15;4.10;;;2.80;;
15667;SDS011;7934;48.710;9.024;2023-07-20T04:16:42;3.13;;;2.93;;
15667;SDS011;7934;48.710;9.024;2023-07-20T04:19:09;2.70;;;2.60;;
15667;SDS011;7934;48.710;9.024;2023-07-20T04:21:39;5.67;;;3.00;;
15667;SDS011;7934;48.710;9.024;2023-07-20T04:24:08;4.60;;;3.00;;
15667;SDS011;7934;48.710;9.024;2023-07-20T04:26:35;2.73;;;2.43;;
15667;SDS011;7934;48.710;9.024;2023-07-20T04:29:02;4.77;;;3.00;;
15667;SDS011;7934;48.710;9.024;2023-07-20T04:31:29;4.33;;;2.93;;
15667;SDS011;7934;48.710;9.024;2023-07-20T04:33:58;5.43;;;3.07;;
15667;SDS011;7934;48.710;9.024;2023-07-20T04:36:25;4.53;;;2.50;;
15667;SDS011;7934;48.710;9.024;2023-07-20T04:38:52;4.07;;;2.73;;
15667;SDS011;7934;48.710;9.024;2023-07-20T04:41:21;2.80;;;2.60;;
15667;SDS011;7934;48.710;9.024;2023-07-20T04:43:48;4.30;;;2.70;;
15667;SDS011;7934;48.710;9.024;2023-07-20T04:46:15;2.90;;;2.70;;
15667;SDS011;7934;48.710;9.024;2023-07-20T04:48:43;4.27;;;2.50;;
15667;SDS011;7934;48.710;9.024;2023-07-20T04:51:11;5.83;;;2.57;;
15667;SDS011;7934;48.710;9.024;2023-07-20T04:53:38;3.00;;;2.80;;
15667;SDS011;7934;48.710;9.024;2023-07-20T04:56:05;4.87;;;2.87;;
15667;SDS011;7934;48.710;9.024;2023-07-20T04:58:33;3.87;;;2.83;;
15667;SDS011;7934;48.710;9.024;2023-07-20T05:01:00;6.70;;;3.10;;
15667;SDS011;7934;48.710;9.024;2023-07-20T05:03:27;5.57;;;3.03;;
15667;SDS011;7934;48.710;9.024;2023-07-20T05:05:54;4.27;;;3.00;;
15667;SDS011;7934;48.710;9.024;2023-07-20T05:08:22;5.07;;;2.83;;
15667;SDS011;7934;48.710;9.024;2023-07-20T05:10:49;3.40;;;2.50;;
15667;SDS011;7934;48.710;9.024;2023-07-20T05:13:16;9.03;;;3.10;;
15667;SDS011;7934;48.710;9.024;2023-07-20T05:15:44;3.13;;;2.83;;
15667;SDS011;7934;48.710;9.024;2023-07-20T05:18:11;2.80;;;2.57;;
15667;SDS011;7934;48.710;9.024;2023-07-20T05:20:45;4.73;;;2.93;;
15667;SDS011;7934;48.710;9.024;2023-07-20T05:23:12;3.80;;;3.07;;
15667;SDS011;7934;48.710;9.024;2023-07-20T05:25:39;3.43;;;2.73;;
15667;SDS011;7934;48.710;9.024;2023-07-20T05:28:06;5.90;;;2.77;;
15667;SDS011;7934;48.710;9.024;2023-07-20T05:30:33;2.83;;;2.60;;
15667;SDS011;7934;48.710;9.024;2023-07-20T05:33:02;3.37;;;3.07;;
15667;SDS011;7934;48.710;9.024;2023-07-20T05:35:29;5.70;;;2.57;;
15667;SDS011;7934;48.710;9.024;2023-07-20T05:37:56;7.87;;;2.87;;
15667;SDS011;7934;48.710;9.024;2023-07-20T05:40:23;2.80;;;2.50;;
15667;SDS011;7934;48.710;9.024;2023-07-20T05:42:51;2.43;;;2.30;;
15667;SDS011;7934;48.710;9.024;2023-07-20T05:45:20;7.23;;;2.80;;
15667;SDS011;7934;48.710;9.024;2023-07-20T05:47:47;3.90;;;3.60;;
15667;SDS011;7934;48.710;9.024;2023-07-20T05:50:16;5.93;;;2.20;;
15667;SDS011;7934;48.710;9.024;2023-07-20T05:52:43;3.23;;;2.60;;
15667;SDS011;7934;48.710;9.024;2023-07-20T05:55:10;2.20;;;1.93;;
15667;SDS011;7934;48.710;9.024;2023-07-20T05:57:37;9.37;;;2.50;;
15667;SDS011;7934;48.710;9.024;2023-07-20T06:00:08;3.57;;;1.90;;
15667;SDS011;7934;48.710;9.024;2023-07-20T06:02:35;2.33;;;2.13;;
15667;SDS011;7934;48.710;9.024;2023-07-20T06:05:03;3.83;;;2.40;;
15667;SDS011;7934;48.710;9.024;2023-07-20T06:07:31;2.70;;;2.27;;
15667;SDS011;7934;48.710;9.024;2023-07-20T06:09:58;11.57;;;2.70;;
15667;SDS011;7934;48.710;9.024;2023-07-20T06:12:25;6.03;;;2.47;;
15667;SDS011;7934;48.710;9.024;2023-07-20T06:14:52;6.00;;;2.30;;
15667;SDS011;7934;48.710;9.024;2023-07-20T06:17:20;4.73;;;2.20;;
15667;SDS011;7934;48.710;9.024;2023-07-20T06:19:47;3.47;;;2.53;;
15667;SDS011;7934;48.710;9.024;2023-07-20T06:22:14;5.00;;;2.20;;
15667;SDS011;7934;48.710;9.024;2023-07-20T06:24:42;4.17;;;2.33;;
15667;SDS011;7934;48.710;9.024;2023-07-20T06:27:09;6.00;;;2.60;;
15667;SDS011;7934;48.710;9.024;2023-07-20T06:29:37;3.93;;;2.10;;
15667;SDS011;7934;48.710;9.024;2023-07-20T06:32:05;4.17;;;2.27;;
15667;SDS011;7934;48.710;9.024;2023-07-20T06:34:32;8.13;;;2.90;;
15667;SDS011;7934;48.710;9.024;2023-07-20T06:37:02;4.13;;;2.43;;
15667;SDS011;7934;48.710;9.024;2023-07-20T06:39:29;5.60;;;2.80;;
15667;SDS011;7934;48.710;9.024;2023-07-20T06:41:58;3.43;;;2.37;;
15667;SDS011;7934;48.710;9.024;2023-07-20T06:44:25;3.93;;;2.10;;
15667;SDS011;7934;48.710;9.024;2023-07-20T06:46:52;7.27;;;2.23;;
15667;SDS011;7934;48.710;9.024;2023-07-20T06:49:25;2.40;;;2.20;;
15667;SDS011;7934;48.710;9.024;2023-07-20T06:51:52;3.20;;;2.37;;
15667;SDS011;7934;48.710;9.024;2023-07-20T06:54:20;4.00;;;2.03;;
15667;SDS011;7934;48.710;9.024;2023-07-20T06:56:47;4.93;;;2.10;;
15667;SDS011;7934;48.710;9.024;2023-07-20T06:59:15;2.23;;;2.13;;
15667;SDS011;7934;48.710;9.024;2023-07-20T07:01:43;7.43;;;2.23;;
15667;SDS011;7934;48.710;9.024;2023-07-20T07:04:10;8.47;;;2.57;;
15667;SDS011;7934;48.710;9.024;2023-07-20T07:06:37;3.77;;;2.57;;
15667;SDS011;7934;48.710;9.024;2023-07-20T07:09:04;7.00;;;2.63;;
15667;SDS011;7934;48.710;9.024;2023-07-20T07:11:33;3.83;;;2.20;;
15667;SDS011;7934;48.710;9.024;2023-07-20T07:14:00;3.27;;;2.00;;
15667;SDS011;7934;48.710;9.024;2023-07-20T07:16:28;6.10;;;2.30;;
15667;SDS011;7934;48.710;9.024;2023-07-20T07:18:55;10.97;;;2.23;;
15667;SDS011;7934;48.710;9.024;2023-07-20T07:21:23;2.00;;;1.90;;
15667;SDS011;7934;48.710;9.024;2023-07-20T07:23:50;4.70;;;2.20;;
15667;SDS011;7934;48.710;9.024;2023-07-20T07:26:22;5.30;;;2.27;;
15667;SDS011;7934;48.710;9.024;2023-07-20T07:28:49;2.63;;;2.00;;
15667;SDS011;7934;48.710;9.024;2023-07-20T07:31:16;1.73;;;1.60;;
15667;SDS011;7934;48.710;9.024;2023-07-20T07:33:45;3.80;;;1.93;;
15667;SDS011;7934;48.710;9.024;2023-07-20T07:36:12;5.70;;;2.20;;
15667;SDS011;7934;48.710;9.024;2023-07-20T07:38:39;2.23;;;1.73;;
15667;SDS011;7934;48.710;9.024;2023-07-20T07:41:06;5.07;;;2.00;;
15667;SDS011;7934;48.710;9.024;2023-07-20T07:43:33;2.67;;;1.70;;
15667;SDS011;7934;48.710;9.024;2023-07-20T07:46:01;2.50;;;1.90;;
15667;SDS011;7934;48.710;9.024;2023-07-20T07:48:28;2.40;;;2.20;;
15667;SDS011;7934;48.710;9.024;2023-07-20T07:50:57;3.83;;;2.20;;
15667;SDS011;7934;48.710;9.024;2023-07-20T07:53:24;2.30;;;2.07;;
15667;SDS011;7934;48.710;9.024;2023-07-20T07:55:51;1.90;;;1.80;;
15667;SDS011;7934;48.710;9.024;2023-07-20T07:58:19;5.37;;;1.93;;
15667;SDS011;7934;48.710;9.024;2023-07-20T08:00:46;2.20;;;1.70;;
15667;SDS011;7934;48.710;9.024;2023-07-20T08:03:13;1.97;;;1.80;;
15667;SDS011;7934;48.710;9.024;2023-07-20T08:05:40;4.13;;;1.80;;
15667;SDS011;7934;48.710;9.024;2023-07-20T08:08:09;5.00;;;2.10;;
15667;SDS011;7934;48.710;9.024;2023-07-20T08:10:36;3.03;;;2.33;;
15667;SDS011;7934;48.710;9.024;2023-07-20T08:13:03;3.83;;;2.20;;
15667;SDS011;7934;48.710;9.024;2023-07-20T08:15:30;2.10;;;1.90;;
15667;SDS011;7934;48.710;9.024;2023-07-20T08:17:57;2.30;;;1.90;;
15667;SDS011;7934;48.710;9.024;2023-07-20T08:20:25;3.73;;;1.93;;
15667;SDS011;7934;48.710;9.024;2023-07-20T08:22:52;2.90;;;2.10;;
15667;SDS011;7934;48.710;9.024;2023-07-20T08:25:21;1.97;;;1.87;;
15667;SDS011;7934;48.710;9.024;2023-07-20T08:27:48;2.97;;;2.00;;
15667;SDS011;7934;48.710;9.024;2023-07-20T08:30:15;2.33;;;2.03;;
15667;SDS011;7934;48.710;9.024;2023-07-20T08:32:42;4.18;;;2.20;;
15667;SDS011;7934;48.710;9.024;2023-07-20T08:35:09;3.43;;;2.00;;
15667;SDS011;7934;48.710;9.024;2023-07-20T08:37:36;7.53;;;2.20;;
15667;SDS011;7934;48.710;9.024;2023-07-20T08:40:04;3.47;;;2.30;;
15667;SDS011;7934;48.710;9.024;2023-07-20T08:42:35;6.87;;;2.60;;
15667;SDS011;7934;48.710;9.024;2023-07-20T08:45:04;6.10;;;2.33;;
15667;SDS011;7934;48.710;9.024;2023-07-20T08:47:34;3.60;;;2.10;;
15667;SDS011;7934;48.710;9.024;2023-07-20T08:50:02;3.20;;;2.30;;
15667;SDS011;7934;48.710;9.024;2023-07-20T08:52:32;3.33;;;2.57;;
15667;SDS011;7934;48.710;9.024;2023-07-20T08:55:00;2.80;;;2.00;;
15667;SDS011;7934;48.710;9.024;2023-07-20T08:57:29;2.90;;;2.20;;
15667;SDS011;7934;48.710;9.024;2023-07-20T08:59:57;3.90;;;2.13;;
15667;SDS011;7934;48.710;9.024;2023-07-20T09:02:25;3.57;;;2.37;;
15667;SDS011;7934;48.710;9.024;2023-07-20T09:04:53;3.23;;;1.80;;
15667;SDS011;7934;48.710;9.024;2023-07-20T09:07:21;2.00;;;1.90;;
15667;SDS011;7934;48.710;9.024;2023-07-20T09:09:49;2.00;;;1.83;;
15667;SDS011;7934;48.710;9.024;2023-07-20T09:12:16;3.20;;;1.93;;
15667;SDS011;7934;48.710;9.024;2023-07-20T09:14:43;1.73;;;1.63;;
15667;SDS011;7934;48.710;9.024;2023-07-20T09:17:14;4.80;;;2.00;;
15667;SDS011;7934;48.710;9.024;2023-07-20T09:19:45;2.17;;;1.80;;
15667;SDS011;7934;48.710;9.024;2023-07-20T09:22:13;1.70;;;1.70;;
15667;SDS011;7934;48.710;9.024;2023-07-20T09:24:40;3.07;;;1.70;;
15667;SDS011;7934;48.710;9.024;2023-07-20T09:27:07;3.87;;;2.00;;
15667;SDS011;7934;48.710;9.024;2023-07-20T09:29:39;2.67;;;2.03;;
15667;SDS011;7934;48.710;9.024;2023-07-20T09:32:17;2.10;;;1.60;;
15667;SDS011;7934;48.710;9.024;2023-07-20T09:34:45;2.53;;;2.03;;
15667;SDS011;7934;48.710;9.024;2023-07-20T09:37:12;6.00;;;2.00;;
15667;SDS011;7934;48.710;9.024;2023-07-20T09:39:42;2.93;;;2.10;;
15667;SDS011;7934;48.710;9.024;2023-07-20T09:42:10;2.63;;;1.77;;
15667;SDS011;7934;48.710;9.024;2023-07-20T09:44:38;1.80;;;1.70;;
15667;SDS011;7934;48.710;9.024;2023-07-20T09:47:06;1.70;;;1.60;;
15667;SDS011;7934;48.710;9.024;2023-07-20T09:49:34;2.90;;;1.70;;
15667;SDS011;7934;48.710;9.024;2023-07-20T09:52:06;2.07;;;1.53;;
15667;SDS011;7934;48.710;9.024;2023-07-20T09:54:33;4.03;;;1.40;;
15667;SDS011;7934;48.710;9.024;2023-07-20T09:57:00;1.70;;;1.60;;
15667;SDS011;7934;48.710;9.024;2023-07-20T09:59:29;3.47;;;1.80;;
15667;SDS011;7934;48.710;9.024;2023-07-20T10:01:56;1.50;;;1.50;;
15667;SDS011;7934;48.710;9.024;2023-07-20T10:04:25;1.27;;;1.27;;
15667;SDS011;7934;48.710;9.024;2023-07-20T10:06:54;2.40;;;1.80;;
15667;SDS011;7934;48.710;9.024;2023-07-20T10:09:22;4.83;;;1.97;;
15667;SDS011;7934;48.710;9.024;2023-07-20T10:11:50;2.03;;;1.77;;
15667;SDS011;7934;48.710;9.024;2023-07-20T10:14:19;1.70;;;1.60;;
15667;SDS011;7934;48.710;9.024;2023-07-20T10:16:50;1.80;;;1.70;;
15667;SDS011;7934;48.710;9.024;2023-07-20T10:19:19;1.70;;;1.60;;
15667;SDS011;7934;48.710;9.024;2023-07-20T10:21:50;2.43;;;2.10;;
15667;SDS011;7934;48.710;9.024;2023-07-20T10:24:19;1.73;;;1.60;;
15667;SDS011;7934;48.710;9.024;2023-07-20T10:26:47;1.90;;;1.30;;
15667;SDS011;7934;48.710;9.024;2023-07-20T10:29:14;3.03;;;1.37;;
15667;SDS011;7934;48.710;9.024;2023-07-20T10:31:42;1.73;;;1.63;;
15667;SDS011;7934;48.710;9.024;2023-07-20T10:34:09;2.15;;;1.40;;
15667;SDS011;7934;48.710;9.024;2023-07-20T10:36:43;3.67;;;1.60;;
15667;SDS011;7934;48.710;9.024;2023-07-20T10:39:13;4.10;;;1.50;;
15667;SDS011;7934;48.710;9.024;2023-07-20T10:41:50;1.60;;;1.60;;
15667;SDS011;7934;48.710;9.024;2023-07-20T10:44:26;2.00;;;1.70;;
15667;SDS011;7934;48.710;9.024;2023-07-20T10:46:58;1.80;;;1.10;;
15667;SDS011;7934;48.710;9.024;2023-07-20T10:49:25;2.57;;;1.60;;
15667;SDS011;7934;48.710;9.024;2023-07-20T10:51:56;1.30;;;1.30;;
15667;SDS011;7934;48.710;9.024;2023-07-20T10:54:33;1.20;;;1.20;;
15667;SDS011;7934;48.710;9.024;2023-07-20T10:59:45;3.23;;;1.80;;
15667;SDS011;7934;48.710;9.024;2023-07-20T11:02:17;2.80;;;1.70;;
15667;SDS011;7934;48.710;9.024;2023-07-20T11:04:45;1.38;;;1.38;;
15667;SDS011;7934;48.710;9.024;2023-07-20T11:07:15;1.50;;;1.40;;
15667;SDS011;7934;48.710;9.024;2023-07-20T11:09:42;2.17;;;1.10;;
15667;SDS011;7934;48.710;9.024;2023-07-20T11:12:10;2.35;;;1.40;;
15667;SDS011;7934;48.710;9.024;2023-07-20T11:14:39;1.40;;;1.40;;
15667;SDS011;7934;48.710;9.024;2023-07-20T11:17:12;1.40;;;1.20;;
15667;SDS011;7934;48.710;9.024;2023-07-20T11:19:39;1.30;;;1.30;;
15667;SDS011;7934;48.710;9.024;2023-07-20T11:22:06;1.20;;;1.20;;
15667;SDS011;7934;48.710;9.024;2023-07-20T11:24:34;3.23;;;1.50;;
15667;SDS011;7934;48.710;9.024;2023-07-20T11:27:01;1.77;;;1.40;;
15667;SDS011;7934;48.710;9.024;2023-07-20T11:29:28;4.47;;;1.50;;
15667;SDS011;7934;48.710;9.024;2023-07-20T11:31:56;1.97;;;1.30;;
15667;SDS011;7934;48.710;9.024;2023-07-20T11:34:25;2.30;;;1.40;;
15667;SDS011;7934;48.710;9.024;2023-07-20T11:36:52;1.50;;;1.40;;
15667;SDS011;7934;48.710;9.024;2023-07-20T11:39:21;1.47;;;1.37;;
15667;SDS011;7934;48.710;9.024;2023-07-20T11:41:51;1.20;;;1.20;;
15667;SDS011;7934;48.710;9.024;2023-07-20T11:44:19;1.27;;;1.27;;
15667;SDS011;7934;48.710;9.024;2023-07-20T11:46:59;2.15;;;1.50;;
15667;SDS011;7934;48.710;9.024;2023-07-20T11:49:28;2.05;;;1.20;;
15667;SDS011;7934;48.710;9.024;2023-07-20T11:51:55;1.50;;;1.40;;
15667;SDS011;7934;48.710;9.024;2023-07-20T11:54:23;1.33;;;1.27;;
15667;SDS011;7934;48.710;9.024;2023-07-20T11:56:53;1.70;;;1.60;;
15667;SDS011;7934;48.710;9.024;2023-07-20T11:59:20;3.90;;;1.60;;
15667;SDS011;7934;48.710;9.024;2023-07-20T12:01:47;1.70;;;1.60;;
15667;SDS011;7934;48.710;9.024;2023-07-20T12:04:14;1.50;;;1.40;;
15667;SDS011;7934;48.710;9.024;2023-07-20T12:06:43;1.33;;;1.33;;
15667;SDS011;7934;48.710;9.024;2023-07-20T12:09:13;1.80;;;1.70;;
15667;SDS011;7934;48.710;9.024;2023-07-20T12:11:42;1.47;;;1.33;;
15667;SDS011;7934;48.710;9.024;2023-07-20T12:14:09;1.60;;;1.50;;
15667;SDS011;7934;48.710;9.024;2023-07-20T12:16:37;1.98;;;1.40;;
15667;SDS011;7934;48.710;9.024;2023-07-20T12:19:05;1.35;;;1.23;;
15667;SDS011;7934;48.710;9.024;2023-07-20T12:21:33;2.20;;;1.20;;
15667;SDS011;7934;48.710;9.024;2023-07-20T12:24:03;1.48;;;1.38;;
15667;SDS011;7934;48.710;9.024;2023-07-20T12:26:30;2.10;;;1.40;;
15667;SDS011;7934;48.710;9.024;2023-07-20T12:28:58;1.67;;;1.40;;
15667;SDS011;7934;48.710;9.024;2023-07-20T12:31:26;1.80;;;1.30;;
15667;SDS011;7934;48.710;9.024;2023-07-20T12:33:54;1.60;;;1.50;;
15667;SDS011;7934;48.710;9.024;2023-07-20T12:36:22;1.63;;;1.50;;
15667;SDS011;7934;48.710;9.024;2023-07-20T12:38:49;3.67;;;1.50;;
15667;SDS011;7934;48.710;9.024;2023-07-20T12:41:18;1.37;;;1.30;;
15667;SDS011;7934;48.710;9.024;2023-07-20T12:43:45;1.40;;;1.40;;
15667;SDS011;7934;48.710;9.024;2023-07-20T12:46:12;2.53;;;1.40;;
15667;SDS011;7934;48.710;9.024;2023-07-20T12:48:40;3.60;;;1.60;;
15667;SDS011;7934;48.710;9.024;2023-07-20T12:51:08;1.83;;;1.60;;
15667;SDS011;7934;48.710;9.024;2023-07-20T12:53:36;1.53;;;1.50;;
15667;SDS011;7934;48.710;9.024;2023-07-20T12:56:04;1.63;;;1.53;;
15667;SDS011;7934;48.710;9.024;2023-07-20T12:58:33;1.67;;;1.50;;
15667;SDS011;7934;48.710;9.024;2023-07-20T13:01:01;2.67;;;1.40;;
15667;SDS011;7934;48.710;9.024;2023-07-20T13:03:29;1.50;;;1.40;;
15667;SDS011;7934;48.710;9.024;2023-07-20T13:05:56;2.30;;;1.60;;
15667;SDS011;7934;48.710;9.024;2023-07-20T13:08:23;1.50;;;1.40;;
15667;SDS011;7934;48.710;9.024;2023-07-20T13:10:52;1.47;;;1.37;;
15667;SDS011;7934;48.710;9.024;2023-07-20T13:13:19;1.40;;;1.23;;
15667;SDS011;7934;48.710;9.024;2023-07-20T13:15:47;1.40;;;1.40;;
15667;SDS011;7934;48.710;9.024;2023-07-20T13:18:15;2.00;;;1.50;;
15667;SDS011;7934;48.710;9.024;2023-07-20T13:20:43;1.20;;;1.20;;
15667;SDS011;7934;48.710;9.024;2023-07-20T13:23:10;1.27;;;1.27;;
15667;SDS011;7934;48.710;9.024;2023-07-20T13:25:37;1.97;;;1.30;;
15667;SDS011;7934;48.710;9.024;2023-07-20T13:28:05;2.23;;;1.20;;
15667;SDS011;7934;48.710;9.024;2023-07-20T13:30:32;1.75;;;1.20;;
15667;SDS011;7934;48.710;9.024;2023-07-20T13:33:00;1.40;;;1.30;;
15667;SDS011;7934;48.710;9.024;2023-07-20T13:35:28;2.13;;;1.30;;
15667;SDS011;7934;48.710;9.024;2023-07-20T13:37:55;2.70;;;1.30;;
15667;SDS011;7934;48.710;9.024;2023-07-20T13:40:22;1.73;;;1.40;;
15667;SDS011;7934;48.710;9.024;2023-07-20T13:42:49;1.30;;;1.30;;
15667;SDS011;7934;48.710;9.024;2023-07-20T13:45:16;2.30;;;1.43;;
15667;SDS011;7934;48.710;9.024;2023-07-20T13:47:43;1.43;;;1.33;;
15667;SDS011;7934;48.710;9.024;2023-07-20T13:50:12;2.40;;;1.47;;
15667;SDS011;7934;48.710;9.024;2023-07-20T13:52:40;1.23;;;1.23;;
15667;SDS011;7934;48.710;9.024;2023-07-20T13:55:07;1.87;;;1.50;;
15667;SDS011;7934;48.710;9.024;2023-07-20T13:57:36;1.70;;;1.60;;
15667;SDS011;7934;48.710;9.024;2023-07-20T14:00:03;1.63;;;1.50;;
15667;SDS011;7934;48.710;9.024;2023-07-20T14:02:30;2.73;;;1.60;;
15667;SDS011;7934;48.710;9.024;2023-07-20T14:04:57;3.90;;;1.50;;
15667;SDS011;7934;48.710;9.024;2023-07-20T14:07:26;1.53;;;1.50;;
15667;SDS011;7934;48.710;9.024;2023-07-20T14:09:53;4.50;;;1.70;;
15667;SDS011;7934;48.710;9.024;2023-07-20T14:12:20;1.50;;;1.50;;
15667;SDS011;7934;48.710;9.024;2023-07-20T14:14:47;1.40;;;1.30;;
15667;SDS011;7934;48.710;9.024;2023-07-20T14:17:14;1.30;;;1.30;;
15667;SDS011;7934;48.710;9.024;2023-07-20T14:19:41;1.87;;;1.37;;
15667;SDS011;7934;48.710;9.024;2023-07-20T14:22:08;1.70;;;1.60;;
15667;SDS011;7934;48.710;9.024;2023-07-20T14:24:37;1.53;;;1.30;;
15667;SDS011;7934;48.710;9.024;2023-07-20T14:27:04;2.33;;;1.67;;
15667;SDS011;7934;48.710;9.024;2023-07-20T14:29:31;1.73;;;1.63;;
15667;SDS011;7934;48.710;9.024;2023-07-20T14:32:01;3.43;;;1.83;;
15667;SDS011;7934;48.710;9.024;2023-07-20T14:34:29;3.03;;;1.57;;
15667;SDS011;7934;48.710;9.024;2023-07-20T14:36:58;1.37;;;1.27;;
15667;SDS011;7934;48.710;9.024;2023-07-20T14:39:25;1.73;;;1.63;;
15667;SDS011;7934;48.710;9.024;2023-07-20T14:41:54;2.10;;;1.73;;
15667;SDS011;7934;48.710;9.024;2023-07-20T14:44:21;2.00;;;1.63;;
15667;SDS011;7934;48.710;9.024;2023-07-20T14:46:48;1.60;;;1.60;;
15667;SDS011;7934;48.710;9.024;2023-07-20T14:49:15;2.10;;;1.90;;
15667;SDS011;7934;48.710;9.024;2023-07-20T14:51:43;1.80;;;1.50;;
15667;SDS011;7934;48.710;9.024;2023-07-20T14:54:11;1.77;;;1.67;;
15667;SDS011;7934;48.710;9.024;2023-07-20T14:56:39;2.00;;;1.90;;
15667;SDS011;7934;48.710;9.024;2023-07-20T14:59:07;1.33;;;1.33;;
15667;SDS011;7934;48.710;9.024;2023-07-20T15:01:34;1.60;;;1.50;;
15667;SDS011;7934;48.710;9.024;2023-07-20T15:04:01;1.50;;;1.40;;
15667;SDS011;7934;48.710;9.024;2023-07-20T15:06:29;1.27;;;1.27;;